Time;durP1;ratioP1;P1;durP2;ratioP2;P2;SDS_P1;SDS_P2;PMS_P1;PMS_P2;Temp;Humidity;BMP_temperature;BMP_pressure;BME280_temperature;BME280_humidity;BME280_pressure;Samples;Min_cycle;Max_cycle;Signal;HPM_P1;HPM_P2
2022/05/15 00:01:46;;;;;;;7.00;1.88;;;;;;;;;;10449063;28;20277;-75
2022/05/15 00:06:47;;;;;;;6.65;1.75;;;;;;;;;;10463992;28;20202;-76
2022/05/15 00:11:48;;;;;;;4.82;1.70;;;;;;;;;;10448595;28;20213;-77
2022/05/15 00:16:49;;;;;;;5.15;1.98;;;;;;;;;;10447483;28;20217;-76
2022/05/15 00:21:50;;;;;;;5.10;2.15;;;;;;;;;;10424945;28;20783;-75
2022/05/15 00:26:52;;;;;;;4.68;2.42;;;;;;;;;;10418042;28;20982;-76
2022/05/15 00:31:53;;;;;;;9.07;2.28;;;;;;;;;;10431424;28;20757;-76
2022/05/15 00:36:54;;;;;;;7.10;2.88;;;;;;;;;;10444215;28;20225;-75
2022/05/15 00:41:55;;;;;;;10.00;3.58;;;;;;;;;;10449032;28;20202;-76
2022/05/15 00:46:56;;;;;;;7.88;2.85;;;;;;;;;;10419519;28;20223;-76
2022/05/15 00:52:04;;;;;;;6.82;3.08;;;;;;;;;;10445973;28;20578;-76
2022/05/15 00:57:09;;;;;;;3.47;2.35;;;;;;;;;;10430215;28;20882;-75
2022/05/15 01:02:10;;;;;;;2.78;2.10;;;;;;;;;;10459082;28;20210;-75
2022/05/15 01:07:13;;;;;;;8.02;2.20;;;;;;;;;;10428181;28;20275;-75
2022/05/15 01:12:15;;;;;;;4.05;2.28;;;;;;;;;;10430272;28;20319;-75
2022/05/15 01:17:16;;;;;;;4.93;2.95;;;;;;;;;;10422945;28;20218;-75
2022/05/15 01:22:22;;;;;;;3.58;2.92;;;;;;;;;;10414454;28;20194;-75
2022/05/15 01:27:23;;;;;;;3.70;2.70;;;;;;;;;;10430846;28;20381;-76
2022/05/15 01:32:25;;;;;;;4.10;2.85;;;;;;;;;;10437606;28;20274;-75
2022/05/15 01:37:26;;;;;;;4.30;2.30;;;;;;;;;;10437993;28;20217;-75
2022/05/15 01:42:27;;;;;;;8.25;2.80;;;;;;;;;;10448673;28;20200;-75
2022/05/15 01:47:28;;;;;;;2.55;1.85;;;;;;;;;;10442218;28;20265;-75
2022/05/15 01:52:30;;;;;;;4.72;2.08;;;;;;;;;;10445241;28;20255;-75
2022/05/15 01:57:31;;;;;;;2.95;1.95;;;;;;;;;;10446905;28;20709;-75
2022/05/15 02:02:34;;;;;;;4.85;2.30;;;;;;;;;;10434470;28;20297;-75
2022/05/15 02:07:35;;;;;;;7.93;2.28;;;;;;;;;;10436225;28;20194;-75
2022/05/15 02:12:36;;;;;;;6.85;2.20;;;;;;;;;;10435536;28;20221;-75
2022/05/15 02:17:38;;;;;;;3.60;1.92;;;;;;;;;;10442340;28;20202;-75
2022/05/15 02:22:39;;;;;;;4.30;3.17;;;;;;;;;;10431257;28;20649;-75
2022/05/15 02:27:41;;;;;;;5.45;4.20;;;;;;;;;;10446975;28;20210;-75
2022/05/15 02:32:42;;;;;;;7.70;5.47;;;;;;;;;;10433800;28;20210;-73
2022/05/15 02:37:44;;;;;;;9.27;7.15;;;;;;;;;;10437506;28;20279;-74
2022/05/15 02:42:46;;;;;;;11.00;6.50;;;;;;;;;;10405059;28;20318;-75
2022/05/15 02:47:48;;;;;;;14.68;5.40;;;;;;;;;;10435581;28;20360;-75
2022/05/15 02:52:49;;;;;;;4.13;3.28;;;;;;;;;;10450562;28;20233;-75
2022/05/15 02:57:50;;;;;;;4.00;3.13;;;;;;;;;;10431902;28;20288;-75
2022/05/15 03:02:52;;;;;;;5.60;3.47;;;;;;;;;;10447357;28;20210;-75
2022/05/15 03:07:53;;;;;;;2.95;2.75;;;;;;;;;;10463162;28;20199;-74
2022/05/15 03:12:54;;;;;;;5.43;2.38;;;;;;;;;;10421389;28;20724;-74
2022/05/15 03:17:55;;;;;;;3.30;2.30;;;;;;;;;;10417204;28;20202;-75
2022/05/15 03:22:57;;;;;;;4.82;2.85;;;;;;;;;;10463602;28;20220;-75
2022/05/15 03:27:59;;;;;;;2.95;2.25;;;;;;;;;;10426841;28;21083;-75
2022/05/15 03:33:00;;;;;;;6.20;2.80;;;;;;;;;;10439314;28;20210;-75
2022/05/15 03:38:01;;;;;;;6.25;2.35;;;;;;;;;;10417963;28;20240;-74
2022/05/15 03:43:02;;;;;;;5.30;2.53;;;;;;;;;;10432940;28;20332;-74
2022/05/15 03:48:04;;;;;;;4.72;2.25;;;;;;;;;;10421496;28;20222;-74
2022/05/15 03:53:05;;;;;;;3.22;2.47;;;;;;;;;;10452261;28;20455;-74
2022/05/15 03:58:07;;;;;;;5.47;2.53;;;;;;;;;;10443408;28;20202;-74
2022/05/15 04:03:08;;;;;;;2.85;2.58;;;;;;;;;;10433681;28;20213;-74
2022/05/15 04:08:10;;;;;;;6.72;2.70;;;;;;;;;;10451540;28;20202;-75
2022/05/15 04:13:11;;;;;;;10.55;2.45;;;;;;;;;;10466484;28;20293;-74
2022/05/15 04:18:12;;;;;;;4.90;2.60;;;;;;;;;;10449098;28;20206;-75
2022/05/15 04:23:14;;;;;;;5.20;2.83;;;;;;;;;;10445787;28;20194;-74
2022/05/15 04:28:15;;;;;;;7.28;3.13;;;;;;;;;;10426027;28;20201;-74
2022/05/15 04:33:16;;;;;;;4.05;2.22;;;;;;;;;;10462390;28;20275;-75
2022/05/15 04:38:17;;;;;;;5.82;2.22;;;;;;;;;;10443088;28;20209;-75
2022/05/15 04:43:18;;;;;;;5.55;2.47;;;;;;;;;;10442037;28;20207;-74
2022/05/15 04:48:19;;;;;;;9.55;2.90;;;;;;;;;;10454283;28;20206;-75
2022/05/15 04:53:20;;;;;;;4.88;2.85;;;;;;;;;;10443321;28;20290;-74
2022/05/15 04:58:21;;;;;;;7.13;2.70;;;;;;;;;;10458159;28;20220;-74
2022/05/15 05:03:22;;;;;;;3.83;2.42;;;;;;;;;;10451167;28;20237;-75
2022/05/15 05:08:23;;;;;;;10.25;3.60;;;;;;;;;;10451577;28;20214;-74
2022/05/15 05:13:24;;;;;;;5.35;2.72;;;;;;;;;;10409129;28;20198;-74
2022/05/15 05:18:25;;;;;;;8.77;2.38;;;;;;;;;;10434204;28;20268;-74
2022/05/15 05:23:26;;;;;;;6.97;2.08;;;;;;;;;;10438186;28;20320;-75
2022/05/15 05:28:28;;;;;;;5.18;2.28;;;;;;;;;;10444850;28;20260;-74
2022/05/15 05:33:29;;;;;;;6.72;2.42;;;;;;;;;;10436325;28;20230;-75
2022/05/15 05:38:30;;;;;;;5.18;1.73;;;;;;;;;;10442679;28;20209;-75
2022/05/15 05:43:31;;;;;;;5.22;1.95;;;;;;;;;;10435044;28;20222;-75
2022/05/15 05:48:33;;;;;;;4.35;2.00;;;;;;;;;;10423400;28;20241;-75
2022/05/15 05:53:34;;;;;;;7.05;1.77;;;;;;;;;;10421630;28;20210;-75
2022/05/15 05:58:36;;;;;;;5.90;2.10;;;;;;;;;;10448992;28;20209;-75
2022/05/15 06:08:56;;;;;;;6.18;2.17;;;;;;;;;;10433628;28;20209;-75
2022/05/15 06:13:58;;;;;;;4.68;1.98;;;;;;;;;;10416209;28;20264;-76
2022/05/15 06:18:59;;;;;;;6.90;2.25;;;;;;;;;;10424811;28;20209;-75
2022/05/15 06:24:00;;;;;;;6.40;1.88;;;;;;;;;;10438493;28;20733;-75
2022/05/15 06:29:01;;;;;;;7.95;2.50;;;;;;;;;;10432714;28;20211;-76
2022/05/15 06:34:04;;;;;;;3.97;2.08;;;;;;;;;;10438006;28;20214;-76
2022/05/15 06:39:05;;;;;;;4.95;1.92;;;;;;;;;;10428402;28;20223;-76
2022/05/15 06:44:06;;;;;;;6.30;2.42;;;;;;;;;;10436545;28;20712;-76
2022/05/15 06:49:08;;;;;;;4.43;1.98;;;;;;;;;;10426556;28;20198;-76
2022/05/15 06:54:09;;;;;;;5.10;1.88;;;;;;;;;;10428801;28;20207;-77
2022/05/15 06:59:10;;;;;;;6.13;1.70;;;;;;;;;;10447400;28;20210;-78
2022/05/15 07:04:11;;;;;;;4.00;0.90;;;;;;;;;;10454741;28;20269;-77
2022/05/15 07:09:12;;;;;;;5.00;1.65;;;;;;;;;;10440339;28;20202;-77
2022/05/15 07:14:13;;;;;;;6.78;1.73;;;;;;;;;;10440198;28;20271;-77
2022/05/15 07:19:14;;;;;;;3.90;1.98;;;;;;;;;;10444523;28;20218;-76
2022/05/15 07:24:15;;;;;;;1.27;1.13;;;;;;;;;;10452716;28;20202;-77
2022/05/15 07:29:17;;;;;;;5.38;1.27;;;;;;;;;;10395761;28;20190;-77
2022/05/15 07:34:19;;;;;;;4.65;1.10;;;;;;;;;;10434973;28;21052;-78
2022/05/15 07:39:20;;;;;;;2.95;1.48;;;;;;;;;;10445480;28;20214;-78
2022/05/15 07:44:22;;;;;;;4.43;1.10;;;;;;;;;;10454764;28;20308;-78
2022/05/15 07:49:23;;;;;;;0.73;0.70;;;;;;;;;;10429919;28;20209;-78
2022/05/15 07:54:24;;;;;;;1.90;0.88;;;;;;;;;;10419932;28;20214;-78
2022/05/15 07:59:25;;;;;;;5.32;0.90;;;;;;;;;;10409475;28;20210;-78
2022/05/15 08:04:28;;;;;;;5.47;1.08;;;;;;;;;;10436630;28;20340;-77
2022/05/15 08:09:29;;;;;;;1.98;1.10;;;;;;;;;;10440196;28;20644;-78
2022/05/15 08:14:31;;;;;;;2.80;1.17;;;;;;;;;;10435100;28;20202;-79
2022/05/15 08:24:52;;;;;;;3.72;1.15;;;;;;;;;;10455267;28;20217;-77
2022/05/15 08:29:54;;;;;;;5.75;1.45;;;;;;;;;;10454361;28;20198;-78
2022/05/15 08:34:55;;;;;;;2.28;1.17;;;;;;;;;;10457011;28;20363;-77
2022/05/15 08:39:56;;;;;;;5.40;1.40;;;;;;;;;;10425659;28;20687;-77
2022/05/15 08:44:59;;;;;;;2.15;0.82;;;;;;;;;;10442575;28;20316;-77
2022/05/15 08:50:06;;;;;;;4.20;1.40;;;;;;;;;;10433695;28;20206;-78
2022/05/15 08:55:09;;;;;;;2.75;1.10;;;;;;;;;;10409251;28;24570;-77
2022/05/15 09:00:13;;;;;;;2.03;0.90;;;;;;;;;;10422172;28;20238;-78
2022/05/15 09:05:14;;;;;;;4.32;0.93;;;;;;;;;;10434118;28;20219;-77
2022/05/15 09:10:15;;;;;;;2.20;0.80;;;;;;;;;;10438649;28;20205;-77
2022/05/15 09:15:19;;;;;;;3.45;1.05;;;;;;;;;;10431641;28;20710;-79
2022/05/15 09:20:26;;;;;;;3.03;1.05;;;;;;;;;;10424217;28;20274;-79
2022/05/15 09:25:32;;;;;;;1.65;1.05;;;;;;;;;;10424750;28;20248;-79
2022/05/15 09:30:33;;;;;;;3.30;1.10;;;;;;;;;;10429670;28;20325;-79
2022/05/15 09:35:41;;;;;;;4.40;1.38;;;;;;;;;;10421799;28;20193;-79
2022/05/15 09:46:14;;;;;;;1.88;0.90;;;;;;;;;;10422674;28;20297;-78
2022/05/15 09:51:22;;;;;;;1.08;1.08;;;;;;;;;;10406226;28;20213;-79
2022/05/15 09:56:25;;;;;;;1.27;0.90;;;;;;;;;;10441312;28;20214;-78
2022/05/15 10:01:35;;;;;;;2.08;1.10;;;;;;;;;;10449749;28;20954;-79
2022/05/15 10:06:47;;;;;;;2.95;0.82;;;;;;;;;;10433551;28;20292;-79
2022/05/15 10:11:51;;;;;;;2.80;0.90;;;;;;;;;;10472193;28;20210;-78
2022/05/15 10:16:54;;;;;;;1.13;0.90;;;;;;;;;;10429099;28;20635;-79
2022/05/15 10:22:04;;;;;;;3.22;0.88;;;;;;;;;;10441557;28;20195;-79
2022/05/15 10:27:10;;;;;;;2.83;0.90;;;;;;;;;;10464887;28;20210;-79
2022/05/15 10:32:16;;;;;;;4.90;0.95;;;;;;;;;;10454561;28;20279;-79
2022/05/15 10:37:17;;;;;;;2.15;0.80;;;;;;;;;;10450203;28;20229;-79
2022/05/15 10:42:26;;;;;;;2.53;0.82;;;;;;;;;;10453332;28;20205;-79
2022/05/15 10:47:35;;;;;;;1.58;0.90;;;;;;;;;;10425368;28;20249;-80
2022/05/15 10:52:46;;;;;;;3.83;1.05;;;;;;;;;;10447114;28;20226;-80
2022/05/15 10:57:51;;;;;;;1.75;0.82;;;;;;;;;;10453734;28;20740;-80
2022/05/15 11:03:11;;;;;;;3.42;0.95;;;;;;;;;;10428367;28;20222;-79
2022/05/15 11:08:20;;;;;;;1.63;0.90;;;;;;;;;;10453552;28;20199;-78
2022/05/15 11:13:30;;;;;;;2.15;1.20;;;;;;;;;;10462959;28;20194;-79
2022/05/15 11:18:50;;;;;;;1.92;0.80;;;;;;;;;;10458100;28;20210;-80
2022/05/15 11:23:54;;;;;;;2.25;1.20;;;;;;;;;;10457773;28;20285;-80
2022/05/15 11:29:03;;;;;;;2.03;1.13;;;;;;;;;;10453175;28;20610;-80
2022/05/15 11:34:08;;;;;;;1.17;0.60;;;;;;;;;;10457346;28;20217;-79
2022/05/15 11:39:15;;;;;;;1.27;0.90;;;;;;;;;;10456057;28;20213;-80
2022/05/15 11:44:20;;;;;;;1.55;0.70;;;;;;;;;;10456134;28;20226;-80
2022/05/15 11:49:21;;;;;;;2.78;0.77;;;;;;;;;;10444686;28;20741;-80
2022/05/15 11:54:30;;;;;;;1.25;0.75;;;;;;;;;;10457569;28;20210;-81
2022/05/15 11:59:32;;;;;;;0.73;0.65;;;;;;;;;;10458415;28;20206;-80
2022/05/15 12:04:36;;;;;;;3.90;0.95;;;;;;;;;;10458163;28;20224;-81
2022/05/15 12:09:39;;;;;;;1.45;0.70;;;;;;;;;;10439194;28;20202;-79
2022/05/15 12:14:40;;;;;;;4.47;0.82;;;;;;;;;;10458738;28;20738;-79
2022/05/15 12:19:44;;;;;;;1.52;0.70;;;;;;;;;;10461482;28;20198;-79
2022/05/15 12:24:48;;;;;;;0.63;0.60;;;;;;;;;;10449178;28;20206;-79
2022/05/15 12:29:58;;;;;;;1.95;0.60;;;;;;;;;;10445527;28;20260;-79
2022/05/15 12:34:59;;;;;;;2.63;0.50;;;;;;;;;;10451106;28;20636;-79
2022/05/15 12:40:01;;;;;;;0.80;0.80;;;;;;;;;;10457226;28;20215;-79
2022/05/15 12:45:05;;;;;;;0.75;0.70;;;;;;;;;;10452963;28;20243;-79
2022/05/15 12:50:17;;;;;;;1.75;0.80;;;;;;;;;;10459230;28;20203;-79
2022/05/15 12:55:26;;;;;;;2.95;0.77;;;;;;;;;;10453971;28;20217;-79
2022/05/15 13:00:30;;;;;;;2.70;0.90;;;;;;;;;;10447244;28;20221;-78
2022/05/15 13:05:33;;;;;;;1.45;0.70;;;;;;;;;;10464657;28;20208;-78
2022/05/15 13:10:36;;;;;;;1.83;0.75;;;;;;;;;;10457237;28;20194;-78
2022/05/15 13:15:39;;;;;;;2.35;0.68;;;;;;;;;;10447136;28;20247;-77
2022/05/15 13:20:40;;;;;;;1.35;0.80;;;;;;;;;;10461235;28;20210;-77
2022/05/15 13:25:43;;;;;;;1.40;0.95;;;;;;;;;;10455131;28;20202;-77
2022/05/15 13:30:44;;;;;;;2.00;0.60;;;;;;;;;;10456561;28;20260;-77
2022/05/15 13:35:47;;;;;;;1.10;0.60;;;;;;;;;;10436586;28;20682;-78
2022/05/15 13:46:18;;;;;;;1.17;0.90;;;;;;;;;;10439509;28;20234;-78
2022/05/15 13:51:38;;;;;;;1.05;0.60;;;;;;;;;;10452621;28;20206;-78
2022/05/15 13:56:40;;;;;;;1.77;0.70;;;;;;;;;;10456712;28;20318;-78
2022/05/15 14:01:41;;;;;;;0.88;0.70;;;;;;;;;;10431664;28;20218;-78
2022/05/15 14:06:46;;;;;;;1.23;0.65;;;;;;;;;;10444901;28;20205;-78
2022/05/15 14:11:47;;;;;;;1.75;0.70;;;;;;;;;;10447912;28;20198;-78
2022/05/15 14:17:01;;;;;;;0.60;0.60;;;;;;;;;;10455835;28;20294;-79
2022/05/15 14:22:05;;;;;;;0.70;0.63;;;;;;;;;;10447336;28;20198;-80
2022/05/15 14:27:06;;;;;;;1.10;0.75;;;;;;;;;;10450584;28;20197;-79
2022/05/15 14:32:09;;;;;;;1.48;0.85;;;;;;;;;;10452044;28;20198;-79
2022/05/15 14:37:10;;;;;;;3.80;0.88;;;;;;;;;;10448773;28;20202;-79
2022/05/15 14:42:11;;;;;;;2.60;0.70;;;;;;;;;;10440822;28;20226;-78
2022/05/15 14:47:19;;;;;;;0.80;0.80;;;;;;;;;;10427013;28;20320;-79
2022/05/15 14:52:27;;;;;;;0.77;0.70;;;;;;;;;;10467770;28;20206;-77
2022/05/15 14:57:28;;;;;;;0.95;0.70;;;;;;;;;;10439515;28;20221;-78
2022/05/15 15:02:30;;;;;;;2.13;0.68;;;;;;;;;;10450836;28;20280;-78
2022/05/15 15:07:31;;;;;;;0.73;0.63;;;;;;;;;;10436960;28;20290;-77
2022/05/15 15:12:33;;;;;;;1.98;0.70;;;;;;;;;;10454633;28;20229;-78
2022/05/15 15:17:34;;;;;;;1.63;0.80;;;;;;;;;;10427106;28;20203;-77
2022/05/15 15:22:35;;;;;;;1.27;0.70;;;;;;;;;;10443926;28;20202;-77
2022/05/15 15:27:36;;;;;;;4.15;0.82;;;;;;;;;;10443523;28;20198;-76
2022/05/15 15:32:38;;;;;;;4.05;0.57;;;;;;;;;;10442973;28;20227;-77
2022/05/15 15:42:58;;;;;;;0.70;0.70;;;;;;;;;;10439178;28;20969;-78
2022/05/15 15:48:00;;;;;;;0.95;0.65;;;;;;;;;;10454861;28;20214;-77
2022/05/15 15:53:01;;;;;;;1.27;0.70;;;;;;;;;;10436391;28;20220;-78
2022/05/15 15:58:03;;;;;;;4.97;0.75;;;;;;;;;;10444246;28;20267;-78
2022/05/15 16:03:05;;;;;;;2.03;0.88;;;;;;;;;;10419822;28;20218;-78
2022/05/15 16:08:10;;;;;;;1.45;0.80;;;;;;;;;;10421593;28;20725;-76
2022/05/15 16:13:11;;;;;;;0.60;0.60;;;;;;;;;;10452813;28;20216;-78
2022/05/15 16:18:14;;;;;;;3.67;0.90;;;;;;;;;;10451375;28;20246;-77
2022/05/15 16:23:17;;;;;;;1.55;0.82;;;;;;;;;;10454936;28;20217;-78
2022/05/15 16:28:19;;;;;;;0.60;0.60;;;;;;;;;;10437581;28;20217;-77
2022/05/15 16:33:20;;;;;;;1.05;0.93;;;;;;;;;;10429331;28;20784;-77
2022/05/15 16:38:21;;;;;;;2.33;0.80;;;;;;;;;;10442498;28;20220;-77
2022/05/15 16:43:23;;;;;;;0.70;0.70;;;;;;;;;;10413156;28;20194;-77
2022/05/15 16:48:24;;;;;;;2.00;0.70;;;;;;;;;;10450273;28;20210;-78
2022/05/15 16:53:26;;;;;;;1.33;0.60;;;;;;;;;;10427720;28;20789;-77
2022/05/15 16:58:27;;;;;;;1.35;0.70;;;;;;;;;;10454371;28;20272;-77
2022/05/15 17:03:29;;;;;;;2.28;0.90;;;;;;;;;;10454274;28;21153;-78
2022/05/15 17:08:30;;;;;;;1.17;0.70;;;;;;;;;;10442365;28;20290;-78
2022/05/15 17:13:31;;;;;;;1.77;0.90;;;;;;;;;;10421167;28;20198;-77
2022/05/15 17:18:32;;;;;;;1.90;0.70;;;;;;;;;;10439299;28;20208;-76
2022/05/15 17:23:33;;;;;;;0.70;0.60;;;;;;;;;;10437428;28;21038;-77
2022/05/15 17:34:20;;;;;;;0.95;0.60;;;;;;;;;;10434370;28;20882;-77
2022/05/15 17:39:46;;;;;;;1.20;0.63;;;;;;;;;;10434690;28;20210;-77
2022/05/15 18:04:07;;;;;;;0.70;0.60;;;;;;;;;;10400750;28;20735;-76
2022/05/15 18:09:08;;;;;;;1.15;0.50;;;;;;;;;;10364832;28;20219;-75
2022/05/15 18:14:10;;;;;;;0.65;0.60;;;;;;;;;;10330620;28;20241;-75
2022/05/15 18:19:12;;;;;;;0.50;0.50;;;;;;;;;;10378523;28;20211;-78
2022/05/15 18:24:13;;;;;;;0.88;0.75;;;;;;;;;;10380959;28;20214;-75
2022/05/15 18:29:14;;;;;;;1.85;0.80;;;;;;;;;;10384836;28;20564;-75
2022/05/15 18:34:16;;;;;;;2.25;0.60;;;;;;;;;;10388393;28;20219;-75
2022/05/15 18:39:18;;;;;;;0.60;0.60;;;;;;;;;;10406986;28;20214;-75
2022/05/15 18:44:20;;;;;;;1.55;0.60;;;;;;;;;;10405774;28;20198;-78
2022/05/15 18:49:21;;;;;;;1.15;0.82;;;;;;;;;;10432214;28;20202;-78
2022/05/15 18:59:41;;;;;;;2.00;0.85;;;;;;;;;;10452369;28;20292;-77
2022/05/15 19:04:42;;;;;;;1.48;0.70;;;;;;;;;;10429218;28;20238;-76
2022/05/15 19:09:44;;;;;;;2.45;0.70;;;;;;;;;;10440802;28;20252;-76
2022/05/15 19:14:46;;;;;;;3.17;0.80;;;;;;;;;;10420446;28;20623;-75
2022/05/15 19:19:47;;;;;;;1.88;0.73;;;;;;;;;;10431337;28;20226;-75
2022/05/15 19:24:48;;;;;;;0.80;0.80;;;;;;;;;;10430290;28;20747;-75
2022/05/15 19:29:49;;;;;;;2.00;0.70;;;;;;;;;;10414979;28;20575;-75
2022/05/15 19:34:50;;;;;;;2.53;0.88;;;;;;;;;;10461626;28;20731;-76
2022/05/15 19:39:52;;;;;;;1.02;0.70;;;;;;;;;;10432465;28;20282;-75
2022/05/15 19:44:53;;;;;;;1.02;0.93;;;;;;;;;;10448573;28;20607;-75
2022/05/15 19:49:54;;;;;;;3.38;0.85;;;;;;;;;;10441280;28;20202;-76
2022/05/15 19:54:55;;;;;;;0.80;0.80;;;;;;;;;;10443713;28;20201;-75
2022/05/15 19:59:56;;;;;;;2.47;0.88;;;;;;;;;;10384295;28;20206;-76
2022/05/15 20:15:37;;;;;;;1.13;0.70;;;;;;;;;;10397986;28;20198;-75
2022/05/15 20:20:38;;;;;;;1.52;0.90;;;;;;;;;;10429772;28;20202;-76
2022/05/15 20:25:40;;;;;;;0.90;0.90;;;;;;;;;;10440981;28;20226;-75
2022/05/15 20:30:41;;;;;;;1.40;0.80;;;;;;;;;;10403223;28;20648;-75
2022/05/15 20:35:42;;;;;;;0.80;0.80;;;;;;;;;;10434717;28;20243;-74
2022/05/15 20:40:43;;;;;;;1.85;1.05;;;;;;;;;;10408723;28;20241;-76
2022/05/15 20:45:44;;;;;;;0.82;0.80;;;;;;;;;;10412108;28;20205;-75
2022/05/15 20:50:46;;;;;;;1.05;0.60;;;;;;;;;;10428852;28;20198;-76
2022/05/15 20:55:47;;;;;;;0.60;0.57;;;;;;;;;;10407194;28;20214;-76
2022/05/15 21:00:48;;;;;;;1.45;0.80;;;;;;;;;;10392298;28;20222;-76
2022/05/15 21:05:49;;;;;;;10.18;0.80;;;;;;;;;;10423946;28;20226;-76
2022/05/15 21:10:50;;;;;;;0.55;0.55;;;;;;;;;;10432935;28;20195;-76
2022/05/15 21:15:54;;;;;;;2.67;0.70;;;;;;;;;;10431059;28;20186;-76
2022/05/15 21:20:57;;;;;;;2.05;0.70;;;;;;;;;;10455467;28;20206;-76
2022/05/15 21:25:58;;;;;;;1.20;0.73;;;;;;;;;;10422602;28;20203;-76
2022/05/15 21:30:59;;;;;;;1.05;0.65;;;;;;;;;;10436558;28;20245;-76
2022/05/15 21:36:02;;;;;;;1.65;0.80;;;;;;;;;;10401154;28;20218;-76
2022/05/15 21:46:23;;;;;;;4.10;0.95;;;;;;;;;;10433224;28;20214;-76
2022/05/15 21:51:25;;;;;;;1.08;1.08;;;;;;;;;;10418182;28;20209;-76
2022/05/15 21:56:26;;;;;;;2.38;0.80;;;;;;;;;;10447820;28;20852;-76
2022/05/15 22:01:27;;;;;;;1.00;0.90;;;;;;;;;;10423910;28;20255;-76
2022/05/15 22:06:28;;;;;;;0.85;0.80;;;;;;;;;;10442292;28;20226;-76
2022/05/15 22:11:29;;;;;;;1.40;0.88;;;;;;;;;;10432633;28;20199;-77
2022/05/15 22:16:30;;;;;;;1.15;0.77;;;;;;;;;;10389198;28;20195;-74
2022/05/15 22:21:32;;;;;;;1.58;0.60;;;;;;;;;;10420508;28;20290;-75
2022/05/15 22:26:35;;;;;;;2.05;0.80;;;;;;;;;;10418303;28;20209;-75
2022/05/15 22:31:36;;;;;;;1.10;0.93;;;;;;;;;;10409002;28;20297;-74
2022/05/15 22:36:37;;;;;;;3.28;0.75;;;;;;;;;;10420686;28;20602;-74
2022/05/15 22:41:38;;;;;;;3.25;1.17;;;;;;;;;;10411511;28;20210;-74
2022/05/15 22:46:41;;;;;;;1.65;0.60;;;;;;;;;;10401721;28;20199;-74
2022/05/15 22:51:42;;;;;;;1.13;0.80;;;;;;;;;;10397121;28;20277;-75
2022/05/15 22:56:43;;;;;;;0.82;0.82;;;;;;;;;;10411672;28;20222;-74
2022/05/15 23:01:44;;;;;;;3.50;0.70;;;;;;;;;;10411037;28;20226;-74
2022/05/15 23:12:05;;;;;;;0.82;0.82;;;;;;;;;;10427691;28;20213;-74
2022/05/15 23:17:06;;;;;;;1.35;0.88;;;;;;;;;;10430344;28;20194;-74
2022/05/15 23:22:07;;;;;;;0.80;0.80;;;;;;;;;;10460964;28;20228;-74
2022/05/15 23:27:08;;;;;;;0.90;0.80;;;;;;;;;;10456902;28;20198;-74
2022/05/15 23:32:11;;;;;;;1.33;1.23;;;;;;;;;;10439257;28;20222;-75
2022/05/15 23:37:12;;;;;;;2.05;1.00;;;;;;;;;;10416713;28;20206;-74
2022/05/15 23:42:13;;;;;;;1.05;1.00;;;;;;;;;;10443981;28;20256;-75
2022/05/15 23:47:14;;;;;;;2.78;0.90;;;;;;;;;;10452437;28;20259;-74
2022/05/15 23:52:16;;;;;;;1.20;1.10;;;;;;;;;;10423942;28;20906;-74
2022/05/15 23:57:17;;;;;;;4.15;1.50;;;;;;;;;;10455573;28;20333;-74
